createdAt,value
2019-06-15T00:02:19.283Z,23.60
2019-06-15T00:04:49.718Z,26.20
2019-06-15T00:07:19.451Z,28.40
2019-06-15T00:09:49.274Z,24.80
2019-06-15T00:12:19.109Z,24.80
2019-06-15T00:14:48.860Z,25.80
2019-06-15T00:17:18.680Z,24.80
2019-06-15T00:19:48.635Z,28.20
2019-06-15T00:22:18.803Z,30.20
2019-06-15T00:24:48.905Z,29.60
2019-06-15T00:27:19.038Z,25.00
2019-06-15T00:29:48.837Z,28.40
2019-06-15T00:32:19.037Z,28.40
2019-06-15T00:34:48.780Z,28.20
2019-06-15T00:37:18.631Z,27.60
2019-06-15T00:39:48.678Z,22.20
2019-06-15T00:42:18.933Z,30.60
2019-06-15T00:44:48.752Z,27.40
2019-06-15T00:47:18.911Z,33.20
2019-06-15T00:49:48.989Z,27.40
2019-06-15T00:52:18.658Z,27.40
2019-06-15T00:54:50.552Z,24.80
2019-06-15T00:57:20.661Z,21.60
2019-06-15T00:59:50.443Z,25.60
2019-06-15T01:02:20.404Z,24.40
2019-06-15T01:04:50.266Z,27.80
2019-06-15T01:07:20.392Z,24.80
2019-06-15T01:09:50.143Z,26.60
2019-06-15T01:12:19.970Z,24.80
2019-06-15T01:14:50.246Z,22.80
2019-06-15T01:17:20.210Z,18.80
2019-06-15T01:19:50.060Z,18.00
2019-06-15T01:22:20.395Z,21.80
2019-06-15T01:25:04.726Z,18.00
2019-06-15T01:27:22.103Z,21.80
2019-06-15T01:29:52.287Z,21.80
2019-06-15T01:32:22.109Z,22.20
2019-06-15T01:34:52.127Z,15.80
2019-06-15T01:37:22.520Z,18.00
2019-06-15T01:39:52.379Z,21.40
2019-06-15T01:42:22.140Z,20.80
2019-06-15T01:44:52.344Z,17.75
2019-06-15T01:47:22.632Z,16.60
2019-06-15T01:49:52.666Z,16.40
2019-06-15T01:52:22.711Z,20.80
2019-06-15T01:54:52.595Z,18.40
2019-06-15T01:57:22.897Z,19.60
2019-06-15T01:59:52.659Z,18.40
2019-06-15T02:02:22.577Z,19.40
2019-06-15T02:04:52.963Z,16.00
2019-06-15T02:07:22.656Z,18.00
2019-06-15T02:09:52.506Z,15.00
2019-06-15T02:12:22.892Z,23.20
2019-06-15T02:14:52.646Z,18.00
2019-06-15T02:17:22.621Z,18.00
2019-06-15T02:19:52.903Z,16.80
2019-06-15T02:22:22.678Z,16.40
2019-06-15T02:24:52.521Z,15.00
2019-06-15T02:27:22.948Z,15.00
2019-06-15T02:29:56.356Z,16.50
2019-06-15T02:32:33.531Z,14.80
2019-06-15T02:35:04.080Z,14.60
2019-06-15T02:37:34.221Z,15.20
2019-06-15T02:40:03.893Z,12.00
2019-06-15T02:42:33.816Z,16.00
2019-06-15T02:45:04.234Z,18.00
2019-06-15T02:47:34.186Z,12.60
2019-06-15T02:50:04.116Z,14.60
2019-06-15T02:52:34.348Z,13.00
2019-06-15T02:55:04.389Z,12.00
2019-06-15T02:57:34.159Z,12.80
2019-06-15T03:00:04.118Z,13.20
2019-06-15T03:02:34.221Z,15.40
2019-06-15T03:05:04.577Z,15.20
2019-06-15T03:07:34.422Z,16.40
2019-06-15T03:10:04.313Z,14.80
2019-06-15T03:12:34.471Z,6.80
2019-06-15T03:15:04.212Z,12.40
2019-06-15T03:17:33.950Z,12.20
2019-06-15T03:20:04.415Z,15.60
2019-06-15T03:22:34.451Z,18.00
2019-06-15T03:25:04.259Z,13.80
2019-06-15T03:27:33.948Z,15.60
2019-06-15T03:30:03.943Z,15.60
2019-06-15T03:32:34.237Z,18.20
2019-06-15T03:35:04.352Z,16.00
2019-06-15T03:37:34.238Z,17.20
2019-06-15T03:40:07.200Z,20.20
2019-06-15T03:42:36.983Z,19.00
2019-06-15T03:45:07.096Z,20.20
2019-06-15T03:47:37.552Z,20.20
2019-06-15T03:50:07.325Z,21.20
2019-06-15T03:52:37.292Z,26.60
2019-06-15T03:55:07.441Z,21.00
2019-06-15T03:57:37.252Z,22.00
2019-06-15T04:00:09.070Z,21.20
2019-06-15T04:02:39.131Z,22.00
2019-06-15T04:05:09.427Z,17.20
2019-06-15T04:07:39.461Z,16.80
2019-06-15T04:10:09.448Z,21.60
2019-06-15T04:12:39.306Z,15.00
2019-06-15T04:15:09.538Z,18.80
2019-06-15T04:17:39.513Z,17.80
2019-06-15T04:20:09.425Z,18.80
2019-06-15T04:22:39.681Z,20.20
2019-06-15T04:25:09.494Z,17.60
2019-06-15T04:27:39.539Z,18.40
2019-06-15T04:30:09.260Z,23.80
2019-06-15T04:32:39.239Z,23.20
2019-06-15T04:35:09.643Z,21.20
2019-06-15T04:37:39.517Z,18.60
2019-06-15T04:40:09.311Z,22.00
2019-06-15T04:42:39.218Z,21.80
2019-06-15T04:45:09.177Z,22.60
2019-06-15T04:47:38.909Z,24.40
2019-06-15T04:50:09.298Z,20.80
2019-06-15T04:52:39.037Z,18.60
2019-06-15T04:55:08.785Z,21.40
2019-06-15T04:57:38.826Z,21.20
2019-06-15T05:00:09.654Z,22.00
2019-06-15T05:02:40.000Z,24.40
2019-06-15T05:05:09.941Z,23.40
2019-06-15T05:07:39.696Z,26.20
2019-06-15T05:10:10.054Z,28.20
2019-06-15T05:12:40.158Z,24.20
2019-06-15T05:15:10.039Z,19.00
2019-06-15T05:17:40.159Z,23.40
2019-06-15T05:20:10.323Z,29.80
2019-06-15T05:22:40.129Z,34.40
2019-06-15T05:25:10.605Z,40.20
2019-06-15T05:27:40.319Z,41.80
2019-06-15T05:30:10.065Z,42.60
2019-06-15T05:32:40.460Z,40.20
2019-06-15T05:35:10.246Z,53.00
2019-06-15T05:37:40.174Z,48.00
2019-06-15T05:40:10.641Z,53.60
2019-06-15T05:42:40.411Z,51.20
2019-06-15T05:45:10.996Z,50.40
2019-06-15T05:47:40.776Z,52.00
2019-06-15T05:50:10.546Z,52.20
2019-06-15T05:52:41.281Z,55.00
2019-06-15T05:55:11.106Z,52.20
2019-06-15T05:57:40.936Z,56.80
2019-06-15T06:00:12.151Z,60.20
2019-06-15T06:02:41.900Z,52.40
2019-06-15T06:05:11.811Z,61.60
2019-06-15T06:07:42.610Z,55.20
2019-06-15T06:10:12.300Z,55.00
2019-06-15T06:12:42.287Z,55.00
2019-06-15T06:15:12.167Z,59.80
2019-06-15T06:17:42.464Z,53.60
2019-06-15T06:20:12.586Z,60.80
2019-06-15T06:22:42.719Z,59.60
2019-06-15T06:25:12.574Z,57.40
2019-06-15T06:27:42.784Z,58.20
2019-06-15T06:30:12.846Z,58.00
2019-06-15T06:32:42.882Z,60.20
2019-06-15T06:35:12.488Z,59.60
2019-06-15T06:37:42.829Z,58.40
2019-06-15T06:40:12.679Z,56.80
2019-06-15T06:42:42.547Z,53.40
2019-06-15T06:45:12.766Z,48.60
2019-06-15T06:47:42.677Z,50.80
2019-06-15T06:50:12.554Z,55.40
2019-06-15T06:52:42.869Z,56.00
2019-06-15T06:55:12.615Z,56.00
2019-06-15T06:57:52.231Z,55.60
2019-06-15T07:00:15.496Z,56.40
2019-06-15T07:02:45.747Z,56.20
2019-06-15T07:05:15.527Z,54.20
2019-06-15T07:07:45.295Z,53.20
2019-06-15T07:10:15.084Z,56.80
2019-06-15T07:12:44.948Z,51.20
2019-06-15T07:15:14.848Z,53.60
2019-06-15T07:17:44.657Z,50.20
2019-06-15T07:20:14.497Z,51.40
2019-06-15T07:22:44.559Z,51.40
2019-06-15T07:25:14.390Z,45.40
2019-06-15T07:27:44.284Z,48.60
2019-06-15T07:30:14.140Z,46.20
2019-06-15T07:32:43.882Z,43.80
2019-06-15T07:35:14.095Z,42.40
2019-06-15T07:37:43.845Z,40.60
2019-06-15T07:40:13.818Z,38.00
2019-06-15T07:42:45.573Z,41.80
2019-06-15T07:45:15.527Z,34.80
2019-06-15T07:47:45.264Z,35.00
2019-06-15T07:50:15.713Z,35.60
2019-06-15T07:52:45.440Z,29.60
2019-06-15T07:55:15.142Z,24.20
2019-06-15T07:57:45.010Z,26.80
2019-06-15T08:00:14.871Z,21.20
2019-06-15T08:02:45.140Z,20.20
2019-06-15T08:05:15.110Z,17.40
2019-06-15T08:07:44.918Z,17.80
2019-06-15T08:10:16.755Z,9.40
2019-06-15T08:12:46.527Z,15.00
2019-06-15T08:15:16.186Z,12.00
2019-06-15T08:17:46.087Z,18.80
2019-06-15T08:20:15.910Z,17.20
2019-06-15T08:22:45.522Z,22.20
2019-06-15T08:25:15.624Z,21.00
2019-06-15T08:27:45.334Z,22.20
2019-06-15T08:30:14.954Z,21.80
2019-06-15T08:32:45.088Z,22.00
2019-06-15T08:35:16.852Z,22.80
2019-06-15T08:37:46.912Z,18.00
2019-06-15T08:40:17.135Z,19.80
2019-06-15T08:42:48.428Z,21.60
2019-06-15T08:45:30.051Z,15.60
2019-06-15T08:48:00.112Z,20.80
2019-06-15T08:50:30.212Z,18.80
2019-06-15T08:53:00.593Z,19.00
2019-06-15T08:55:33.588Z,19.60
2019-06-15T08:58:03.273Z,15.80
2019-06-15T09:00:33.283Z,17.20
2019-06-15T09:03:03.086Z,11.80
2019-06-15T09:05:33.845Z,12.20
2019-06-15T09:08:03.764Z,10.60
2019-06-15T09:10:33.900Z,9.00
2019-06-15T09:13:03.788Z,8.40
2019-06-15T09:15:49.979Z,7.00
2019-06-15T09:18:19.768Z,8.00
2019-06-15T09:20:50.394Z,8.00
2019-06-15T09:23:19.992Z,7.80
2019-06-15T09:25:49.663Z,9.80
2019-06-15T09:28:19.690Z,8.00
2019-06-15T09:30:49.463Z,8.20
2019-06-15T09:33:19.089Z,9.00
2019-06-15T09:35:48.763Z,8.00
2019-06-15T09:38:18.483Z,9.00
2019-06-15T09:40:48.580Z,9.40
2019-06-15T09:43:18.537Z,9.00
2019-06-15T09:45:50.702Z,9.00
2019-06-15T09:48:20.432Z,9.00
2019-06-15T09:50:50.486Z,13.20
2019-06-15T09:53:20.683Z,11.80
2019-06-15T09:55:50.390Z,12.60
2019-06-15T09:58:19.948Z,8.40
2019-06-15T10:00:50.070Z,11.00
2019-06-15T10:03:19.917Z,6.00
2019-06-15T10:05:49.626Z,9.40
2019-06-15T10:08:19.864Z,9.00
2019-06-15T10:10:52.506Z,8.00
2019-06-15T10:13:22.204Z,8.40
2019-06-15T10:15:52.314Z,8.60
2019-06-15T10:18:22.090Z,8.60
2019-06-15T10:20:52.263Z,11.00
2019-06-15T10:23:24.526Z,11.00
2019-06-15T10:25:56.338Z,7.20
2019-06-15T10:28:26.452Z,11.60
2019-06-15T10:30:56.464Z,14.00
2019-06-15T10:33:28.183Z,14.20
2019-06-15T10:35:58.988Z,14.00
2019-06-15T10:38:28.784Z,16.20
2019-06-15T10:40:58.403Z,14.00
2019-06-15T10:43:28.553Z,15.40
2019-06-15T10:45:58.526Z,17.60
2019-06-15T10:48:28.170Z,14.40
2019-06-15T10:50:59.548Z,17.60
2019-06-15T10:53:29.055Z,11.00
2019-06-15T10:55:58.941Z,13.40
2019-06-15T10:58:28.808Z,11.00
2019-06-15T11:00:58.577Z,8.80
2019-06-15T11:03:28.581Z,8.60
2019-06-15T11:05:58.358Z,6.80
2019-06-15T11:08:28.054Z,6.40
2019-06-15T11:11:11.337Z,8.20
2019-06-15T11:13:41.238Z,8.00
2019-06-15T11:16:10.972Z,4.40
2019-06-15T11:18:40.710Z,5.60
2019-06-15T11:21:10.550Z,7.60
2019-06-15T11:23:41.245Z,7.60
2019-06-15T11:26:11.285Z,6.00
2019-06-15T11:28:42.415Z,6.80
2019-06-15T11:31:15.400Z,6.00
2019-06-15T11:33:47.304Z,5.00
2019-06-15T11:36:17.245Z,5.00
2019-06-15T11:38:47.397Z,7.20
2019-06-15T11:41:17.149Z,6.00
2019-06-15T11:43:47.606Z,5.60
2019-06-15T11:46:18.928Z,7.20
2019-06-15T11:48:49.095Z,5.60
2019-06-15T11:51:19.319Z,9.00
2019-06-15T11:53:49.126Z,6.20
2019-06-15T11:56:18.762Z,9.00
2019-06-15T11:58:48.315Z,7.20
2019-06-15T12:01:18.954Z,8.60
2019-06-15T12:03:49.013Z,9.60
2019-06-15T12:06:18.625Z,6.00
2019-06-15T12:08:48.442Z,10.00
2019-06-15T12:11:20.481Z,7.40
2019-06-15T12:13:50.476Z,10.20
2019-06-15T12:16:20.624Z,8.80
2019-06-15T12:18:50.196Z,7.00
2019-06-15T12:23:57.248Z,10.00
2019-06-15T12:26:27.072Z,7.40
2019-06-15T12:28:56.743Z,8.00
2019-06-15T12:31:26.474Z,7.00
2019-06-15T12:33:56.252Z,7.80
2019-06-15T12:36:25.995Z,7.00
2019-06-15T12:38:55.585Z,5.00
2019-06-15T12:41:27.470Z,6.00
2019-06-15T12:43:58.034Z,6.00
2019-06-15T12:46:27.783Z,6.00
2019-06-15T12:48:57.460Z,6.80
2019-06-15T12:51:27.385Z,6.00
2019-06-15T12:53:57.446Z,4.20
2019-06-15T12:56:27.163Z,5.60
2019-06-15T12:58:56.733Z,6.00
2019-06-15T13:01:26.335Z,6.60
2019-06-15T13:03:55.889Z,7.40
2019-06-15T13:06:25.551Z,6.40
2019-06-15T13:08:55.151Z,5.60
2019-06-15T13:11:24.766Z,5.40
2019-06-15T13:13:54.708Z,6.40
2019-06-15T13:16:38.619Z,6.00
2019-06-15T13:18:57.574Z,5.00
2019-06-15T13:21:28.809Z,6.60
2019-06-15T13:23:58.420Z,6.00
2019-06-15T13:26:28.303Z,5.60
2019-06-15T13:28:59.715Z,6.60
2019-06-15T13:31:33.227Z,6.40
2019-06-15T13:34:03.685Z,5.00
2019-06-15T13:36:34.001Z,6.00
2019-06-15T13:39:05.386Z,5.80
2019-06-15T13:41:43.414Z,8.00
2019-06-15T13:44:08.685Z,6.20
2019-06-15T13:46:41.896Z,7.00
2019-06-15T13:49:12.144Z,6.60
2019-06-15T13:51:42.133Z,9.80
2019-06-15T13:54:11.905Z,6.60
2019-06-15T13:56:42.089Z,7.00
2019-06-15T13:59:11.799Z,6.00
2019-06-15T14:01:41.825Z,7.00
2019-06-15T14:04:11.378Z,9.60
2019-06-15T14:06:41.189Z,6.20
2019-06-15T14:09:10.922Z,7.00
2019-06-15T14:11:40.605Z,8.60
2019-06-15T14:14:10.642Z,8.40
2019-06-15T14:16:40.408Z,3.00
2019-06-15T14:19:10.135Z,6.20
2019-06-15T14:21:40.136Z,9.40
2019-06-15T14:24:10.714Z,9.00
2019-06-15T14:26:40.654Z,7.40
2019-06-15T14:29:10.465Z,7.00
2019-06-15T14:31:49.759Z,6.60
2019-06-15T14:34:15.047Z,10.60
2019-06-15T14:36:45.231Z,7.00
2019-06-15T14:39:15.008Z,9.80
2019-06-15T14:41:48.616Z,7.40
2019-06-15T14:44:16.743Z,10.00
2019-06-15T14:46:46.497Z,8.60
2019-06-15T14:49:22.070Z,10.40
2019-06-15T14:51:52.534Z,10.40
2019-06-15T14:54:22.531Z,8.80
2019-06-15T14:56:52.502Z,9.20
2019-06-15T14:59:22.336Z,7.00
2019-06-15T15:02:09.539Z,6.20
2019-06-15T15:04:27.103Z,9.80
2019-06-15T15:06:56.962Z,9.80
2019-06-15T15:09:26.571Z,6.20
2019-06-15T15:11:56.594Z,7.60
2019-06-15T15:14:26.306Z,11.00
2019-06-15T15:16:57.328Z,9.00
2019-06-15T15:19:27.354Z,8.20
2019-06-15T15:21:57.121Z,10.00
2019-06-15T15:24:27.325Z,11.80
2019-06-15T15:26:57.168Z,10.20
2019-06-15T15:29:27.386Z,4.20
2019-06-15T15:31:57.814Z,6.60
2019-06-15T15:34:27.682Z,8.60
2019-06-15T15:36:57.300Z,7.20
2019-06-15T15:39:27.533Z,7.00
2019-06-15T15:41:57.383Z,6.80
2019-06-15T15:44:27.119Z,6.40
2019-06-15T15:47:00.190Z,7.00
2019-06-15T15:49:31.348Z,11.40
2019-06-15T15:52:01.266Z,10.00
2019-06-15T15:54:31.149Z,11.80
2019-06-15T15:57:01.241Z,11.00
2019-06-15T15:59:31.300Z,8.40
2019-06-15T16:02:01.823Z,10.60
2019-06-15T16:04:31.466Z,9.00
2019-06-15T16:07:01.410Z,10.80
2019-06-15T16:09:31.209Z,6.60
2019-06-15T16:12:01.031Z,9.40
2019-06-15T16:14:31.289Z,10.20
2019-06-15T16:17:01.389Z,9.00
2019-06-15T16:19:31.429Z,10.00
2019-06-15T16:22:01.317Z,7.00
2019-06-15T16:24:31.150Z,6.00
2019-06-15T16:27:00.771Z,8.80
2019-06-15T16:29:30.731Z,8.40
2019-06-15T16:32:00.790Z,10.60
2019-06-15T16:34:30.464Z,10.00
2019-06-15T16:37:00.532Z,8.00
2019-06-15T16:39:31.599Z,7.00
2019-06-15T16:42:01.585Z,7.00
2019-06-15T16:44:31.286Z,8.60
2019-06-15T16:47:08.726Z,9.60
2019-06-15T16:49:40.939Z,11.20
2019-06-15T16:52:12.085Z,9.00
2019-06-15T16:54:46.983Z,10.80
2019-06-15T16:57:16.471Z,9.60
2019-06-15T16:59:47.244Z,9.40
2019-06-15T17:02:17.415Z,10.00
2019-06-15T17:04:47.445Z,9.80
2019-06-15T17:07:17.520Z,9.60
2019-06-15T17:09:48.341Z,10.00
2019-06-15T17:12:18.128Z,9.80
2019-06-15T17:14:47.834Z,10.60
2019-06-15T17:17:18.022Z,9.00
2019-06-15T17:19:48.134Z,9.20
2019-06-15T17:22:21.295Z,9.00
2019-06-15T17:24:49.440Z,9.40
2019-06-15T17:27:19.120Z,8.60
2019-06-15T17:29:49.019Z,10.20
2019-06-15T17:32:19.087Z,9.60
2019-06-15T17:34:49.198Z,10.20
2019-06-15T17:37:19.503Z,7.20
2019-06-15T17:39:49.227Z,9.00
2019-06-15T17:42:22.255Z,10.00
2019-06-15T17:47:21.926Z,8.60
2019-06-15T17:49:51.983Z,8.60
2019-06-15T17:52:22.022Z,10.00
2019-06-15T17:54:51.775Z,9.20
2019-06-15T17:57:21.430Z,9.60
2019-06-15T17:59:51.272Z,9.00
2019-06-15T18:02:20.934Z,9.60
2019-06-15T18:04:50.584Z,11.40
2019-06-15T18:07:20.400Z,7.40
2019-06-15T18:09:50.042Z,9.00
2019-06-15T18:12:21.294Z,8.60
2019-06-15T18:14:51.601Z,8.20
2019-06-15T18:17:21.570Z,10.00
2019-06-15T18:19:51.210Z,8.60
2019-06-15T18:22:20.834Z,8.20
2019-06-15T18:24:50.570Z,9.40
2019-06-15T18:27:20.099Z,8.20
2019-06-15T18:29:49.755Z,8.40
2019-06-15T18:32:19.953Z,8.00
2019-06-15T18:34:50.690Z,9.00
2019-06-15T18:37:20.399Z,9.40
2019-06-15T18:39:50.397Z,9.80
2019-06-15T18:42:22.882Z,9.40
2019-06-15T18:45:02.081Z,13.00
2019-06-15T18:50:11.543Z,9.00
2019-06-15T18:52:41.282Z,2.00
2019-06-15T18:55:11.815Z,10.60
2019-06-15T18:57:48.738Z,11.00
2019-06-15T19:00:19.042Z,9.60
2019-06-15T19:02:48.825Z,8.40
2019-06-15T19:05:21.234Z,10.00
2019-06-15T19:07:51.014Z,8.80
2019-06-15T19:10:32.536Z,8.00
2019-06-15T19:13:02.399Z,8.40
2019-06-15T19:15:32.714Z,7.80
2019-06-15T19:18:02.519Z,10.40
2019-06-15T19:20:32.140Z,8.80
2019-06-15T19:23:03.468Z,10.20
2019-06-15T19:25:36.144Z,9.80
2019-06-15T19:28:05.315Z,10.80
2019-06-15T19:30:37.373Z,12.20
2019-06-15T19:33:07.495Z,9.40
2019-06-15T19:35:37.402Z,11.80
2019-06-15T19:38:10.538Z,10.80
2019-06-15T19:40:39.769Z,10.20
2019-06-15T19:43:09.417Z,10.60
2019-06-15T19:45:38.963Z,11.20
2019-06-15T19:48:08.761Z,9.80
2019-06-15T19:50:38.368Z,10.20
2019-06-15T19:53:08.018Z,8.00
2019-06-15T19:55:37.610Z,11.60
2019-06-15T19:58:07.540Z,10.20
2019-06-15T20:00:37.188Z,10.80
2019-06-15T20:03:07.307Z,11.00
2019-06-15T20:05:37.391Z,14.20
2019-06-15T20:08:07.338Z,14.60
2019-06-15T20:10:37.361Z,12.00
2019-06-15T20:13:07.349Z,10.80
2019-06-15T20:15:37.985Z,9.20
2019-06-15T20:18:07.670Z,11.00
2019-06-15T20:20:37.328Z,10.20
2019-06-15T20:23:07.399Z,13.60
2019-06-15T20:25:37.145Z,6.60
2019-06-15T20:28:07.438Z,11.00
2019-06-15T20:30:37.268Z,10.80
2019-06-15T20:33:07.858Z,14.00
2019-06-15T20:35:37.727Z,10.80
2019-06-15T20:38:07.416Z,11.00
2019-06-15T20:40:37.232Z,17.80
2019-06-15T20:43:07.628Z,13.00
2019-06-15T20:45:43.298Z,15.20
2019-06-15T20:48:14.214Z,16.40
2019-06-15T20:50:46.931Z,20.80
2019-06-15T20:53:17.060Z,20.00
2019-06-15T20:55:49.047Z,18.20
2019-06-15T20:58:18.567Z,22.00
2019-06-15T21:00:48.635Z,15.80
2019-06-15T21:03:18.816Z,14.00
2019-06-15T21:05:50.198Z,19.80
2019-06-15T21:08:20.030Z,19.80
2019-06-15T21:10:49.811Z,17.00
2019-06-15T21:13:19.497Z,18.80
2019-06-15T21:15:49.394Z,18.60
2019-06-15T21:18:19.268Z,21.40
2019-06-15T21:20:49.354Z,17.00
2019-06-15T21:23:19.591Z,16.60
2019-06-15T21:25:52.352Z,19.00
2019-06-15T21:28:22.025Z,20.40
2019-06-15T21:30:51.990Z,17.00
2019-06-15T21:33:21.922Z,18.20
2019-06-15T21:35:52.793Z,18.40
2019-06-15T21:38:23.214Z,16.00
2019-06-15T21:40:53.077Z,17.80
2019-06-15T21:43:22.722Z,17.00
2019-06-15T21:45:57.029Z,17.00
2019-06-15T21:48:26.951Z,17.00
2019-06-15T21:50:59.477Z,16.40
2019-06-15T21:53:28.521Z,15.40
2019-06-15T21:55:58.477Z,16.80
2019-06-15T21:58:30.366Z,19.20
2019-06-15T22:01:31.409Z,13.40
2019-06-15T22:04:01.566Z,21.60
2019-06-15T22:06:31.470Z,12.60
2019-06-15T22:09:01.840Z,17.20
2019-06-15T22:11:31.912Z,18.00
2019-06-15T22:14:08.447Z,17.20
2019-06-15T22:16:38.831Z,17.80
2019-06-15T22:19:09.034Z,27.60
2019-06-15T22:21:39.395Z,22.80
2019-06-15T22:24:09.245Z,20.00
2019-06-15T22:26:39.008Z,21.00
2019-06-15T22:29:09.360Z,23.80
2019-06-15T22:31:39.241Z,36.40
2019-06-15T22:34:09.000Z,26.40
2019-06-15T22:36:39.313Z,29.00
2019-06-15T22:39:09.059Z,21.80
2019-06-15T22:41:38.952Z,20.60
2019-06-15T22:44:09.059Z,27.40
2019-06-15T22:46:38.828Z,25.00
2019-06-15T22:49:09.067Z,24.80
2019-06-15T22:51:38.755Z,23.00
2019-06-15T22:54:08.631Z,19.60
2019-06-15T22:56:38.905Z,22.60
2019-06-15T22:59:08.713Z,23.00
2019-06-15T23:01:38.555Z,22.60
2019-06-15T23:04:08.302Z,22.00
2019-06-15T23:06:41.463Z,21.40
2019-06-15T23:09:10.063Z,22.40
2019-06-15T23:11:39.834Z,19.20
2019-06-15T23:14:09.595Z,17.60
2019-06-15T23:16:39.897Z,19.40
2019-06-15T23:19:09.863Z,21.60
2019-06-15T23:21:39.953Z,22.00
2019-06-15T23:24:10.067Z,20.80
2019-06-15T23:26:39.882Z,23.40
2019-06-15T23:29:16.544Z,19.40
2019-06-15T23:31:46.933Z,17.80
2019-06-15T23:34:17.094Z,20.60
2019-06-15T23:36:56.340Z,18.60
2019-06-15T23:39:20.674Z,21.60
2019-06-15T23:41:50.750Z,21.40
2019-06-15T23:44:20.589Z,24.00
2019-06-15T23:46:50.375Z,16.60
2019-06-15T23:49:20.288Z,22.00
2019-06-15T23:51:50.055Z,21.40
2019-06-15T23:54:19.777Z,24.00
2019-06-15T23:56:49.497Z,21.00
2019-06-15T23:59:19.239Z,25.40
